sensor_id;sensor_type;location;lat;lon;timestamp;temperature;humidity
48007;DHT22;33771;48.180;11.400;2023-02-28T00:02:21;-2.10;99.90
48007;DHT22;33771;48.180;11.400;2023-02-28T00:04:47;-2.20;99.90
48007;DHT22;33771;48.180;11.400;2023-02-28T00:07:18;-2.20;99.90
48007;DHT22;33771;48.180;11.400;2023-02-28T00:09:44;-2.20;99.90
48007;DHT22;33771;48.180;11.400;2023-02-28T00:12:09;-2.20;99.90
48007;DHT22;33771;48.180;11.400;2023-02-28T00:14:40;-2.20;99.90
48007;DHT22;33771;48.180;11.400;2023-02-28T00:17:05;-2.30;99.90
48007;DHT22;33771;48.180;11.400;2023-02-28T00:19:31;-2.30;99.90
48007;DHT22;33771;48.180;11.400;2023-02-28T00:21:56;-2.20;99.90
48007;DHT22;33771;48.180;11.400;2023-02-28T00:24:22;-2.20;99.90
48007;DHT22;33771;48.180;11.400;2023-02-28T00:26:47;-2.20;99.90
48007;DHT22;33771;48.180;11.400;2023-02-28T00:29:13;-2.30;99.90
48007;DHT22;33771;48.180;11.400;2023-02-28T00:31:38;-2.40;99.90
48007;DHT22;33771;48.180;11.400;2023-02-28T00:34:04;-2.40;99.90
48007;DHT22;33771;48.180;11.400;2023-02-28T00:36:29;-2.50;99.90
48007;DHT22;33771;48.180;11.400;2023-02-28T00:38:55;-2.50;99.90
48007;DHT22;33771;48.180;11.400;2023-02-28T00:41:20;-2.50;99.90
48007;DHT22;33771;48.180;11.400;2023-02-28T00:43:47;-2.60;99.90
48007;DHT22;33771;48.180;11.400;2023-02-28T00:46:13;-2.60;99.90
48007;DHT22;33771;48.180;11.400;2023-02-28T00:48:38;-2.60;99.90
48007;DHT22;33771;48.180;11.400;2023-02-28T00:51:04;-2.60;99.90
48007;DHT22;33771;48.180;11.400;2023-02-28T00:53:30;-2.70;99.90
48007;DHT22;33771;48.180;11.400;2023-02-28T00:55:55;-2.70;99.90
48007;DHT22;33771;48.180;11.400;2023-02-28T00:58:21;-2.80;99.90
48007;DHT22;33771;48.180;11.400;2023-02-28T01:00:47;-2.80;99.90
48007;DHT22;33771;48.180;11.400;2023-02-28T01:03:16;-2.80;99.90
48007;DHT22;33771;48.180;11.400;2023-02-28T01:05:42;-2.80;99.90
48007;DHT22;33771;48.180;11.400;2023-02-28T01:08:08;-2.80;99.90
48007;DHT22;33771;48.180;11.400;2023-02-28T01:10:33;-2.90;99.90
48007;DHT22;33771;48.180;11.400;2023-02-28T01:12:59;-2.90;99.90
48007;DHT22;33771;48.180;11.400;2023-02-28T01:15:25;-2.90;99.90
48007;DHT22;33771;48.180;11.400;2023-02-28T01:17:50;-2.90;99.90
48007;DHT22;33771;48.180;11.400;2023-02-28T01:20:16;-2.90;99.90
48007;DHT22;33771;48.180;11.400;2023-02-28T01:22:41;-2.90;99.90
48007;DHT22;33771;48.180;11.400;2023-02-28T01:25:07;-3.00;99.90
48007;DHT22;33771;48.180;11.400;2023-02-28T01:27:33;-3.00;99.90
48007;DHT22;33771;48.180;11.400;2023-02-28T01:29:59;-3.00;99.90
48007;DHT22;33771;48.180;11.400;2023-02-28T01:32:24;-3.00;99.90
48007;DHT22;33771;48.180;11.400;2023-02-28T01:34:50;-3.00;99.90
48007;DHT22;33771;48.180;11.400;2023-02-28T01:37:15;-3.00;99.90
48007;DHT22;33771;48.180;11.400;2023-02-28T01:39:41;-3.00;99.90
48007;DHT22;33771;48.180;11.400;2023-02-28T01:42:09;-3.00;99.90
48007;DHT22;33771;48.180;11.400;2023-02-28T01:44:58;-3.00;99.90
48007;DHT22;33771;48.180;11.400;2023-02-28T01:47:27;-3.00;99.90
48007;DHT22;33771;48.180;11.400;2023-02-28T01:49:53;-3.00;99.90
48007;DHT22;33771;48.180;11.400;2023-02-28T01:52:20;-3.00;99.90
48007;DHT22;33771;48.180;11.400;2023-02-28T01:54:50;-3.10;99.90
48007;DHT22;33771;48.180;11.400;2023-02-28T01:57:18;-3.10;99.90
48007;DHT22;33771;48.180;11.400;2023-02-28T01:59:51;-3.10;99.90
48007;DHT22;33771;48.180;11.400;2023-02-28T02:02:19;-3.10;99.90
48007;DHT22;33771;48.180;11.400;2023-02-28T02:04:56;-3.10;99.90
48007;DHT22;33771;48.180;11.400;2023-02-28T02:07:24;-3.20;99.90
48007;DHT22;33771;48.180;11.400;2023-02-28T02:09:56;-3.20;99.90
48007;DHT22;33771;48.180;11.400;2023-02-28T02:12:42;-3.20;99.90
48007;DHT22;33771;48.180;11.400;2023-02-28T02:15:26;-3.20;99.90
48007;DHT22;33771;48.180;11.400;2023-02-28T02:17:58;-3.10;99.90
48007;DHT22;33771;48.180;11.400;2023-02-28T02:23:29;-3.20;99.90
48007;DHT22;33771;48.180;11.400;2023-02-28T02:42:15;-3.30;99.90
48007;DHT22;33771;48.180;11.400;2023-02-28T02:44:49;-3.30;99.90
48007;DHT22;33771;48.180;11.400;2023-02-28T02:47:20;-3.40;99.90
48007;DHT22;33771;48.180;11.400;2023-02-28T02:49:53;-3.30;99.90
48007;DHT22;33771;48.180;11.400;2023-02-28T02:52:24;-3.40;99.90
48007;DHT22;33771;48.180;11.400;2023-02-28T02:54:53;-3.40;99.90
48007;DHT22;33771;48.180;11.400;2023-02-28T02:57:33;-3.40;99.90
48007;DHT22;33771;48.180;11.400;2023-02-28T03:00:02;-3.40;99.90
48007;DHT22;33771;48.180;11.400;2023-02-28T03:02:29;-3.40;99.90
48007;DHT22;33771;48.180;11.400;2023-02-28T03:05:03;-3.50;99.90
48007;DHT22;33771;48.180;11.400;2023-02-28T03:07:30;-3.50;99.90
48007;DHT22;33771;48.180;11.400;2023-02-28T03:09:56;-3.50;99.90
48007;DHT22;33771;48.180;11.400;2023-02-28T03:12:53;-3.50;99.90
48007;DHT22;33771;48.180;11.400;2023-02-28T03:15:31;-3.60;99.90
48007;DHT22;33771;48.180;11.400;2023-02-28T03:18:10;-3.60;99.90
48007;DHT22;33771;48.180;11.400;2023-02-28T03:20:56;-3.60;99.90
48007;DHT22;33771;48.180;11.400;2023-02-28T03:23:44;-3.60;99.90
48007;DHT22;33771;48.180;11.400;2023-02-28T03:26:20;-3.60;99.90
48007;DHT22;33771;48.180;11.400;2023-02-28T03:29:14;-3.60;99.90
48007;DHT22;33771;48.180;11.400;2023-02-28T03:31:50;-3.60;99.90
48007;DHT22;33771;48.180;11.400;2023-02-28T03:34:24;-3.60;99.90
48007;DHT22;33771;48.180;11.400;2023-02-28T03:36:55;-3.60;99.90
48007;DHT22;33771;48.180;11.400;2023-02-28T03:39:28;-3.60;99.90
48007;DHT22;33771;48.180;11.400;2023-02-28T03:42:02;-3.60;99.90
48007;DHT22;33771;48.180;11.400;2023-02-28T03:44:33;-3.60;99.90
48007;DHT22;33771;48.180;11.400;2023-02-28T03:47:11;-3.60;99.90
48007;DHT22;33771;48.180;11.400;2023-02-28T03:49:48;-3.60;99.90
48007;DHT22;33771;48.180;11.400;2023-02-28T03:52:15;-3.50;99.90
48007;DHT22;33771;48.180;11.400;2023-02-28T03:54:50;-3.50;99.90
48007;DHT22;33771;48.180;11.400;2023-02-28T03:57:34;-3.50;99.90
48007;DHT22;33771;48.180;11.400;2023-02-28T04:00:07;-3.40;99.90
48007;DHT22;33771;48.180;11.400;2023-02-28T04:02:33;-3.40;99.90
48007;DHT22;33771;48.180;11.400;2023-02-28T04:05:00;-3.30;99.90
48007;DHT22;33771;48.180;11.400;2023-02-28T04:07:29;-3.30;99.90
48007;DHT22;33771;48.180;11.400;2023-02-28T04:10:03;-3.20;99.90
48007;DHT22;33771;48.180;11.400;2023-02-28T04:12:29;-3.20;99.90
48007;DHT22;33771;48.180;11.400;2023-02-28T04:14:54;-3.20;99.90
48007;DHT22;33771;48.180;11.400;2023-02-28T04:17:20;-3.20;99.90
48007;DHT22;33771;48.180;11.400;2023-02-28T04:19:45;-3.20;99.90
48007;DHT22;33771;48.180;11.400;2023-02-28T04:22:11;-3.10;99.90
48007;DHT22;33771;48.180;11.400;2023-02-28T04:24:36;-3.10;99.90
48007;DHT22;33771;48.180;11.400;2023-02-28T04:27:02;-3.00;99.90
48007;DHT22;33771;48.180;11.400;2023-02-28T04:29:30;-3.00;99.90
48007;DHT22;33771;48.180;11.400;2023-02-28T04:31:57;-3.00;99.90
48007;DHT22;33771;48.180;11.400;2023-02-28T04:34:25;-3.00;99.90
48007;DHT22;33771;48.180;11.400;2023-02-28T04:36:50;-3.00;99.90
48007;DHT22;33771;48.180;11.400;2023-02-28T04:39:19;-3.00;99.90
48007;DHT22;33771;48.180;11.400;2023-02-28T04:41:45;-2.90;99.90
48007;DHT22;33771;48.180;11.400;2023-02-28T04:44:10;-2.90;99.90
48007;DHT22;33771;48.180;11.400;2023-02-28T04:46:36;-2.90;99.90
48007;DHT22;33771;48.180;11.400;2023-02-28T04:49:02;-2.90;99.90
48007;DHT22;33771;48.180;11.400;2023-02-28T04:51:28;-2.90;99.90
48007;DHT22;33771;48.180;11.400;2023-02-28T04:53:53;-2.80;99.90
48007;DHT22;33771;48.180;11.400;2023-02-28T04:56:19;-2.80;99.90
48007;DHT22;33771;48.180;11.400;2023-02-28T04:58:45;-2.80;99.90
48007;DHT22;33771;48.180;11.400;2023-02-28T05:03:48;-2.70;99.90
48007;DHT22;33771;48.180;11.400;2023-02-28T05:06:14;-2.70;99.90
48007;DHT22;33771;48.180;11.400;2023-02-28T05:08:40;-2.70;99.90
48007;DHT22;33771;48.180;11.400;2023-02-28T05:11:13;-2.70;99.90
48007;DHT22;33771;48.180;11.400;2023-02-28T05:13:39;-2.60;99.90
48007;DHT22;33771;48.180;11.400;2023-02-28T05:16:04;-2.60;99.90
48007;DHT22;33771;48.180;11.400;2023-02-28T05:18:30;-2.60;99.90
48007;DHT22;33771;48.180;11.400;2023-02-28T05:20:55;-2.60;99.90
48007;DHT22;33771;48.180;11.400;2023-02-28T05:23:22;-2.60;99.90
48007;DHT22;33771;48.180;11.400;2023-02-28T05:25:48;-2.50;99.90
48007;DHT22;33771;48.180;11.400;2023-02-28T05:28:13;-2.50;99.90
48007;DHT22;33771;48.180;11.400;2023-02-28T05:30:39;-2.50;99.90
48007;DHT22;33771;48.180;11.400;2023-02-28T05:33:05;-2.50;99.90
48007;DHT22;33771;48.180;11.400;2023-02-28T05:35:30;-2.50;99.90
48007;DHT22;33771;48.180;11.400;2023-02-28T05:37:56;-2.50;99.90
48007;DHT22;33771;48.180;11.400;2023-02-28T05:40:22;-2.50;99.90
48007;DHT22;33771;48.180;11.400;2023-02-28T05:42:48;-2.40;99.90
48007;DHT22;33771;48.180;11.400;2023-02-28T05:45:15;-2.40;99.90
48007;DHT22;33771;48.180;11.400;2023-02-28T05:47:40;-2.40;99.90
48007;DHT22;33771;48.180;11.400;2023-02-28T05:50:06;-2.40;99.90
48007;DHT22;33771;48.180;11.400;2023-02-28T05:52:32;-2.40;99.90
48007;DHT22;33771;48.180;11.400;2023-02-28T05:54:58;-2.40;99.90
48007;DHT22;33771;48.180;11.400;2023-02-28T05:57:23;-2.40;99.90
48007;DHT22;33771;48.180;11.400;2023-02-28T05:59:49;-2.40;99.90
48007;DHT22;33771;48.180;11.400;2023-02-28T06:02:16;-2.40;99.90
48007;DHT22;33771;48.180;11.400;2023-02-28T06:04:43;-2.50;99.90
48007;DHT22;33771;48.180;11.400;2023-02-28T06:07:09;-2.40;99.90
48007;DHT22;33771;48.180;11.400;2023-02-28T06:09:35;-2.40;99.90
48007;DHT22;33771;48.180;11.400;2023-02-28T06:12:02;-2.30;99.90
48007;DHT22;33771;48.180;11.400;2023-02-28T06:14:35;-2.40;99.90
48007;DHT22;33771;48.180;11.400;2023-02-28T06:17:01;-2.30;99.90
48007;DHT22;33771;48.180;11.400;2023-02-28T06:19:27;-2.30;99.90
48007;DHT22;33771;48.180;11.400;2023-02-28T06:21:56;-2.40;99.90
48007;DHT22;33771;48.180;11.400;2023-02-28T06:24:23;-2.30;99.90
48007;DHT22;33771;48.180;11.400;2023-02-28T06:26:50;-2.30;99.90
48007;DHT22;33771;48.180;11.400;2023-02-28T06:29:16;-2.20;99.90
48007;DHT22;33771;48.180;11.400;2023-02-28T06:31:45;-2.20;99.90
48007;DHT22;33771;48.180;11.400;2023-02-28T06:34:11;-2.20;99.90
48007;DHT22;33771;48.180;11.400;2023-02-28T06:36:38;-2.30;99.90
48007;DHT22;33771;48.180;11.400;2023-02-28T06:39:05;-2.30;99.90
48007;DHT22;33771;48.180;11.400;2023-02-28T06:41:30;-2.20;99.90
48007;DHT22;33771;48.180;11.400;2023-02-28T06:43:56;-2.20;99.90
48007;DHT22;33771;48.180;11.400;2023-02-28T06:46:23;-2.30;99.90
48007;DHT22;33771;48.180;11.400;2023-02-28T06:48:48;-2.20;99.90
48007;DHT22;33771;48.180;11.400;2023-02-28T06:51:17;-2.10;99.90
48007;DHT22;33771;48.180;11.400;2023-02-28T06:53:43;-2.20;99.90
48007;DHT22;33771;48.180;11.400;2023-02-28T06:56:12;-2.20;99.90
48007;DHT22;33771;48.180;11.400;2023-02-28T06:58:38;-2.20;99.90
48007;DHT22;33771;48.180;11.400;2023-02-28T07:01:05;-2.20;99.90
48007;DHT22;33771;48.180;11.400;2023-02-28T07:03:31;-2.20;99.90
48007;DHT22;33771;48.180;11.400;2023-02-28T07:05:56;-2.20;99.90
48007;DHT22;33771;48.180;11.400;2023-02-28T07:08:23;-2.20;99.90
48007;DHT22;33771;48.180;11.400;2023-02-28T07:10:55;-2.20;99.90
48007;DHT22;33771;48.180;11.400;2023-02-28T07:13:21;-2.20;99.90
48007;DHT22;33771;48.180;11.400;2023-02-28T07:16:01;-2.10;99.90
48007;DHT22;33771;48.180;11.400;2023-02-28T07:18:28;-2.10;99.90
48007;DHT22;33771;48.180;11.400;2023-02-28T07:20:53;-2.20;99.90
48007;DHT22;33771;48.180;11.400;2023-02-28T07:23:20;-2.10;99.90
48007;DHT22;33771;48.180;11.400;2023-02-28T07:25:45;-2.10;99.90
48007;DHT22;33771;48.180;11.400;2023-02-28T07:28:12;-2.00;99.90
48007;DHT22;33771;48.180;11.400;2023-02-28T07:30:38;-2.00;99.90
48007;DHT22;33771;48.180;11.400;2023-02-28T07:33:04;-2.00;99.90
48007;DHT22;33771;48.180;11.400;2023-02-28T07:35:30;-2.00;99.90
48007;DHT22;33771;48.180;11.400;2023-02-28T07:37:57;-2.00;99.90
48007;DHT22;33771;48.180;11.400;2023-02-28T07:40:23;-2.00;99.90
48007;DHT22;33771;48.180;11.400;2023-02-28T07:42:48;-2.00;99.90
48007;DHT22;33771;48.180;11.400;2023-02-28T07:45:14;-1.90;99.90
48007;DHT22;33771;48.180;11.400;2023-02-28T07:47:41;-1.90;99.90
48007;DHT22;33771;48.180;11.400;2023-02-28T07:50:08;-1.90;99.90
48007;DHT22;33771;48.180;11.400;2023-02-28T07:52:39;-1.90;99.90
48007;DHT22;33771;48.180;11.400;2023-02-28T07:55:06;-1.90;99.90
48007;DHT22;33771;48.180;11.400;2023-02-28T07:57:32;-1.80;99.90
48007;DHT22;33771;48.180;11.400;2023-02-28T07:59:58;-1.90;99.90
48007;DHT22;33771;48.180;11.400;2023-02-28T08:02:23;-1.80;99.90
48007;DHT22;33771;48.180;11.400;2023-02-28T08:04:49;-1.80;99.90
48007;DHT22;33771;48.180;11.400;2023-02-28T08:07:15;-1.70;99.90
48007;DHT22;33771;48.180;11.400;2023-02-28T08:09:42;-1.70;99.90
48007;DHT22;33771;48.180;11.400;2023-02-28T08:12:09;-1.80;99.90
48007;DHT22;33771;48.180;11.400;2023-02-28T08:14:35;-1.70;99.90
48007;DHT22;33771;48.180;11.400;2023-02-28T08:17:01;-1.70;99.90
48007;DHT22;33771;48.180;11.400;2023-02-28T08:19:26;-1.60;99.90
48007;DHT22;33771;48.180;11.400;2023-02-28T08:21:52;-1.60;99.90
48007;DHT22;33771;48.180;11.400;2023-02-28T08:24:18;-1.60;99.90
48007;DHT22;33771;48.180;11.400;2023-02-28T08:26:43;-1.60;99.90
48007;DHT22;33771;48.180;11.400;2023-02-28T08:29:09;-1.60;99.90
48007;DHT22;33771;48.180;11.400;2023-02-28T08:31:35;-1.60;99.90
48007;DHT22;33771;48.180;11.400;2023-02-28T08:34:14;-1.70;99.90
48007;DHT22;33771;48.180;11.400;2023-02-28T08:36:43;-1.60;99.90
48007;DHT22;33771;48.180;11.400;2023-02-28T08:39:11;-1.60;99.90
48007;DHT22;33771;48.180;11.400;2023-02-28T08:41:37;-1.60;99.90
48007;DHT22;33771;48.180;11.400;2023-02-28T08:44:03;-1.60;99.90
48007;DHT22;33771;48.180;11.400;2023-02-28T08:46:29;-1.60;99.90
48007;DHT22;33771;48.180;11.400;2023-02-28T08:48:56;-1.60;99.90
48007;DHT22;33771;48.180;11.400;2023-02-28T08:51:25;-1.50;99.90
48007;DHT22;33771;48.180;11.400;2023-02-28T08:54:00;-1.60;99.90
48007;DHT22;33771;48.180;11.400;2023-02-28T08:56:27;-1.50;99.90
48007;DHT22;33771;48.180;11.400;2023-02-28T08:58:55;-1.50;99.90
48007;DHT22;33771;48.180;11.400;2023-02-28T09:01:23;-1.50;99.90
48007;DHT22;33771;48.180;11.400;2023-02-28T09:03:50;-1.60;99.90
48007;DHT22;33771;48.180;11.400;2023-02-28T09:06:18;-1.50;99.90
48007;DHT22;33771;48.180;11.400;2023-02-28T09:08:44;-1.50;99.90
48007;DHT22;33771;48.180;11.400;2023-02-28T09:11:10;-1.40;99.90
48007;DHT22;33771;48.180;11.400;2023-02-28T09:13:36;-1.40;99.90
48007;DHT22;33771;48.180;11.400;2023-02-28T09:16:04;-1.30;99.90
48007;DHT22;33771;48.180;11.400;2023-02-28T09:18:30;-1.30;99.90
48007;DHT22;33771;48.180;11.400;2023-02-28T09:20:56;-1.30;99.90
48007;DHT22;33771;48.180;11.400;2023-02-28T09:23:23;-1.30;99.90
48007;DHT22;33771;48.180;11.400;2023-02-28T09:25:53;-1.20;99.90
48007;DHT22;33771;48.180;11.400;2023-02-28T09:28:19;-1.20;99.90
48007;DHT22;33771;48.180;11.400;2023-02-28T09:30:47;-1.10;99.90
48007;DHT22;33771;48.180;11.400;2023-02-28T09:33:14;-1.10;99.90
48007;DHT22;33771;48.180;11.400;2023-02-28T09:35:40;-1.10;99.90
48007;DHT22;33771;48.180;11.400;2023-02-28T09:38:06;-1.10;99.90
48007;DHT22;33771;48.180;11.400;2023-02-28T09:40:37;-1.00;99.90
48007;DHT22;33771;48.180;11.400;2023-02-28T09:43:03;-1.00;99.90
48007;DHT22;33771;48.180;11.400;2023-02-28T09:45:36;-0.90;99.90
48007;DHT22;33771;48.180;11.400;2023-02-28T09:48:14;-0.80;99.90
48007;DHT22;33771;48.180;11.400;2023-02-28T09:51:04;-0.80;99.90
48007;DHT22;33771;48.180;11.400;2023-02-28T09:53:35;-0.80;99.90
48007;DHT22;33771;48.180;11.400;2023-02-28T09:56:13;-0.80;99.90
48007;DHT22;33771;48.180;11.400;2023-02-28T10:04:46;-0.60;99.90
48007;DHT22;33771;48.180;11.400;2023-02-28T10:10:31;-0.60;99.90
48007;DHT22;33771;48.180;11.400;2023-02-28T10:13:00;-0.60;99.90
48007;DHT22;33771;48.180;11.400;2023-02-28T10:15:30;-0.50;99.90
48007;DHT22;33771;48.180;11.400;2023-02-28T10:18:05;-0.40;99.90
48007;DHT22;33771;48.180;11.400;2023-02-28T10:20:37;-0.30;99.90
48007;DHT22;33771;48.180;11.400;2023-02-28T10:25:50;-0.30;99.90
48007;DHT22;33771;48.180;11.400;2023-02-28T10:28:18;-0.30;99.90
48007;DHT22;33771;48.180;11.400;2023-02-28T10:30:49;-0.10;99.90
48007;DHT22;33771;48.180;11.400;2023-02-28T10:33:28;0.10;99.90
48007;DHT22;33771;48.180;11.400;2023-02-28T10:35:53;0.30;99.90
48007;DHT22;33771;48.180;11.400;2023-02-28T10:38:34;0.50;99.90
48007;DHT22;33771;48.180;11.400;2023-02-28T10:41:15;0.80;99.90
48007;DHT22;33771;48.180;11.400;2023-02-28T10:43:43;1.00;99.90
48007;DHT22;33771;48.180;11.400;2023-02-28T10:48:44;1.20;99.90
48007;DHT22;33771;48.180;11.400;2023-02-28T10:51:16;1.30;99.90
48007;DHT22;33771;48.180;11.400;2023-02-28T10:56:22;1.70;99.90
48007;DHT22;33771;48.180;11.400;2023-02-28T11:01:41;2.00;99.90
48007;DHT22;33771;48.180;11.400;2023-02-28T11:06:56;2.40;99.90
48007;DHT22;33771;48.180;11.400;2023-02-28T11:09:38;2.30;99.90
48007;DHT22;33771;48.180;11.400;2023-02-28T11:12:07;2.40;99.90
48007;DHT22;33771;48.180;11.400;2023-02-28T11:14:37;2.50;99.90
48007;DHT22;33771;48.180;11.400;2023-02-28T11:17:19;2.30;99.90
48007;DHT22;33771;48.180;11.400;2023-02-28T11:19:49;2.00;99.90
48007;DHT22;33771;48.180;11.400;2023-02-28T11:22:20;1.70;99.90
48007;DHT22;33771;48.180;11.400;2023-02-28T11:24:51;1.40;99.90
48007;DHT22;33771;48.180;11.400;2023-02-28T11:27:48;1.30;99.90
48007;DHT22;33771;48.180;11.400;2023-02-28T11:30:38;1.20;99.90
48007;DHT22;33771;48.180;11.400;2023-02-28T11:33:29;1.10;99.90
48007;DHT22;33771;48.180;11.400;2023-02-28T11:36:01;1.00;99.90
48007;DHT22;33771;48.180;11.400;2023-02-28T11:38:27;1.00;99.90
48007;DHT22;33771;48.180;11.400;2023-02-28T11:48:55;0.90;99.90
48007;DHT22;33771;48.180;11.400;2023-02-28T11:56:50;1.40;99.90
48007;DHT22;33771;48.180;11.400;2023-02-28T11:59:33;1.80;99.90
48007;DHT22;33771;48.180;11.400;2023-02-28T12:07:21;2.30;99.90
48007;DHT22;33771;48.180;11.400;2023-02-28T12:13:06;2.70;99.90
48007;DHT22;33771;48.180;11.400;2023-02-28T12:15:38;2.90;99.90
48007;DHT22;33771;48.180;11.400;2023-02-28T12:21:04;3.30;99.90
48007;DHT22;33771;48.180;11.400;2023-02-28T12:23:57;3.60;99.90
48007;DHT22;33771;48.180;11.400;2023-02-28T12:26:40;3.80;99.90
48007;DHT22;33771;48.180;11.400;2023-02-28T12:29:23;3.90;99.90
48007;DHT22;33771;48.180;11.400;2023-02-28T12:32:12;4.10;99.90
48007;DHT22;33771;48.180;11.400;2023-02-28T12:34:48;4.10;99.90
48007;DHT22;33771;48.180;11.400;2023-02-28T12:37:29;4.30;99.90
48007;DHT22;33771;48.180;11.400;2023-02-28T12:40:03;4.20;99.90
48007;DHT22;33771;48.180;11.400;2023-02-28T12:42:39;4.40;99.90
48007;DHT22;33771;48.180;11.400;2023-02-28T12:45:20;4.40;99.90
48007;DHT22;33771;48.180;11.400;2023-02-28T12:47:51;4.50;99.90
48007;DHT22;33771;48.180;11.400;2023-02-28T12:50:18;4.50;99.90
48007;DHT22;33771;48.180;11.400;2023-02-28T12:53:03;4.60;99.90
48007;DHT22;33771;48.180;11.400;2023-02-28T12:55:52;4.60;99.90
48007;DHT22;33771;48.180;11.400;2023-02-28T12:58:37;4.70;99.90
48007;DHT22;33771;48.180;11.400;2023-02-28T13:09:57;4.60;99.90
48007;DHT22;33771;48.180;11.400;2023-02-28T13:12:25;4.40;99.90
48007;DHT22;33771;48.180;11.400;2023-02-28T13:15:05;4.40;99.90
48007;DHT22;33771;48.180;11.400;2023-02-28T13:17:36;4.40;99.90
48007;DHT22;33771;48.180;11.400;2023-02-28T13:20:02;4.40;99.90
48007;DHT22;33771;48.180;11.400;2023-02-28T13:22:39;4.50;99.90
48007;DHT22;33771;48.180;11.400;2023-02-28T13:27:59;4.60;99.90
48007;DHT22;33771;48.180;11.400;2023-02-28T13:35:50;4.60;99.90
48007;DHT22;33771;48.180;11.400;2023-02-28T13:38:33;4.70;99.90
48007;DHT22;33771;48.180;11.400;2023-02-28T13:46:32;5.20;99.90
48007;DHT22;33771;48.180;11.400;2023-02-28T13:57:27;5.10;99.90
48007;DHT22;33771;48.180;11.400;2023-02-28T14:00:19;5.10;99.90
48007;DHT22;33771;48.180;11.400;2023-02-28T14:11:41;5.20;99.90
48007;DHT22;33771;48.180;11.400;2023-02-28T14:14:10;5.30;99.90
48007;DHT22;33771;48.180;11.400;2023-02-28T14:16:55;5.20;99.90
48007;DHT22;33771;48.180;11.400;2023-02-28T14:19:25;5.30;99.90
48007;DHT22;33771;48.180;11.400;2023-02-28T14:22:21;5.20;99.90
48007;DHT22;33771;48.180;11.400;2023-02-28T14:33:21;4.90;99.90
48007;DHT22;33771;48.180;11.400;2023-02-28T14:36:03;4.80;99.90
48007;DHT22;33771;48.180;11.400;2023-02-28T14:38:40;4.70;99.90
48007;DHT22;33771;48.180;11.400;2023-02-28T14:41:19;4.70;99.90
48007;DHT22;33771;48.180;11.400;2023-02-28T14:43:51;4.60;99.90
48007;DHT22;33771;48.180;11.400;2023-02-28T14:46:17;4.60;99.90
48007;DHT22;33771;48.180;11.400;2023-02-28T14:48:46;4.40;99.90
48007;DHT22;33771;48.180;11.400;2023-02-28T14:51:17;4.50;99.90
48007;DHT22;33771;48.180;11.400;2023-02-28T14:53:43;4.50;99.90
48007;DHT22;33771;48.180;11.400;2023-02-28T14:56:24;4.50;99.90
48007;DHT22;33771;48.180;11.400;2023-02-28T14:58:53;4.50;99.90
48007;DHT22;33771;48.180;11.400;2023-02-28T15:01:21;4.50;99.90
48007;DHT22;33771;48.180;11.400;2023-02-28T15:03:48;4.60;99.90
48007;DHT22;33771;48.180;11.400;2023-02-28T15:06:17;4.60;99.90
48007;DHT22;33771;48.180;11.400;2023-02-28T15:08:44;4.40;99.90
48007;DHT22;33771;48.180;11.400;2023-02-28T15:11:15;4.40;99.90
48007;DHT22;33771;48.180;11.400;2023-02-28T15:13:52;4.30;99.90
48007;DHT22;33771;48.180;11.400;2023-02-28T15:16:22;4.30;99.90
48007;DHT22;33771;48.180;11.400;2023-02-28T15:18:54;4.30;99.90
48007;DHT22;33771;48.180;11.400;2023-02-28T15:21:30;4.30;99.90
48007;DHT22;33771;48.180;11.400;2023-02-28T15:26:45;4.20;99.90
48007;DHT22;33771;48.180;11.400;2023-02-28T15:29:21;4.20;99.90
48007;DHT22;33771;48.180;11.400;2023-02-28T15:32:02;4.10;99.90
48007;DHT22;33771;48.180;11.400;2023-02-28T15:36:59;4.00;99.90
48007;DHT22;33771;48.180;11.400;2023-02-28T15:39:27;3.90;99.90
48007;DHT22;33771;48.180;11.400;2023-02-28T15:42:10;3.80;99.90
48007;DHT22;33771;48.180;11.400;2023-02-28T15:44:36;3.80;99.90
48007;DHT22;33771;48.180;11.400;2023-02-28T15:47:11;3.70;99.90
48007;DHT22;33771;48.180;11.400;2023-02-28T15:49:47;3.60;99.90
48007;DHT22;33771;48.180;11.400;2023-02-28T15:52:16;3.60;99.90
48007;DHT22;33771;48.180;11.400;2023-02-28T15:54:43;3.50;99.90
48007;DHT22;33771;48.180;11.400;2023-02-28T15:57:31;3.30;99.90
48007;DHT22;33771;48.180;11.400;2023-02-28T16:00:00;3.20;99.90
48007;DHT22;33771;48.180;11.400;2023-02-28T16:02:35;3.20;99.90
48007;DHT22;33771;48.180;11.400;2023-02-28T16:07:37;3.10;99.90
48007;DHT22;33771;48.180;11.400;2023-02-28T16:10:04;3.00;99.90
48007;DHT22;33771;48.180;11.400;2023-02-28T16:12:32;3.00;99.90
48007;DHT22;33771;48.180;11.400;2023-02-28T16:15:00;3.00;99.90
48007;DHT22;33771;48.180;11.400;2023-02-28T16:17:32;3.00;99.90
48007;DHT22;33771;48.180;11.400;2023-02-28T16:19:59;2.90;99.90
48007;DHT22;33771;48.180;11.400;2023-02-28T16:22:25;2.70;99.90
48007;DHT22;33771;48.180;11.400;2023-02-28T16:24:51;2.70;99.90
48007;DHT22;33771;48.180;11.400;2023-02-28T16:27:20;2.60;99.90
48007;DHT22;33771;48.180;11.400;2023-02-28T16:29:47;2.60;99.90
48007;DHT22;33771;48.180;11.400;2023-02-28T16:32:16;2.60;99.90
48007;DHT22;33771;48.180;11.400;2023-02-28T16:34:43;2.50;99.90
48007;DHT22;33771;48.180;11.400;2023-02-28T16:37:15;2.50;99.90
48007;DHT22;33771;48.180;11.400;2023-02-28T16:39:42;2.40;99.90
48007;DHT22;33771;48.180;11.400;2023-02-28T16:42:23;2.30;99.90
48007;DHT22;33771;48.180;11.400;2023-02-28T16:44:51;2.30;99.90
48007;DHT22;33771;48.180;11.400;2023-02-28T16:47:17;2.20;99.90
48007;DHT22;33771;48.180;11.400;2023-02-28T16:49:43;2.10;99.90
48007;DHT22;33771;48.180;11.400;2023-02-28T16:52:09;2.10;99.90
48007;DHT22;33771;48.180;11.400;2023-02-28T16:54:37;2.00;99.90
48007;DHT22;33771;48.180;11.400;2023-02-28T16:57:04;1.90;99.90
48007;DHT22;33771;48.180;11.400;2023-02-28T16:59:30;1.90;99.90
48007;DHT22;33771;48.180;11.400;2023-02-28T17:01:56;1.80;99.90
48007;DHT22;33771;48.180;11.400;2023-02-28T17:04:27;1.70;99.90
48007;DHT22;33771;48.180;11.400;2023-02-28T17:06:53;1.70;99.90
48007;DHT22;33771;48.180;11.400;2023-02-28T17:09:21;1.60;99.90
48007;DHT22;33771;48.180;11.400;2023-02-28T17:11:47;1.50;99.90
48007;DHT22;33771;48.180;11.400;2023-02-28T17:14:14;1.50;99.90
48007;DHT22;33771;48.180;11.400;2023-02-28T17:16:40;1.40;99.90
48007;DHT22;33771;48.180;11.400;2023-02-28T17:19:11;1.40;99.90
48007;DHT22;33771;48.180;11.400;2023-02-28T17:21:37;1.30;99.90
48007;DHT22;33771;48.180;11.400;2023-02-28T17:24:04;1.20;99.90
48007;DHT22;33771;48.180;11.400;2023-02-28T17:26:30;1.20;99.90
48007;DHT22;33771;48.180;11.400;2023-02-28T17:28:58;1.10;99.90
48007;DHT22;33771;48.180;11.400;2023-02-28T17:31:24;1.00;99.90
48007;DHT22;33771;48.180;11.400;2023-02-28T17:33:51;1.00;99.90
48007;DHT22;33771;48.180;11.400;2023-02-28T17:36:26;0.90;99.90
48007;DHT22;33771;48.180;11.400;2023-02-28T17:38:53;0.80;99.90
48007;DHT22;33771;48.180;11.400;2023-02-28T17:41:20;0.80;99.90
48007;DHT22;33771;48.180;11.400;2023-02-28T17:43:46;0.70;99.90
48007;DHT22;33771;48.180;11.400;2023-02-28T17:46:22;0.70;99.90